Time;durP1;ratioP1;P1;durP2;ratioP2;P2;SDS_P1;SDS_P2;PMS_P1;PMS_P2;Temp;Humidity;BMP_temperature;BMP_pressure;BME280_temperature;BME280_humidity;BME280_pressure;Samples;Min_cycle;Max_cycle;Signal;HPM_P1;HPM_P2
2022/01/08 00:00:26;;;;;;;1.83;1.30;;;;;;;;;;4536072;28;20526;-59
2022/01/08 00:02:37;;;;;;;2.65;1.40;;;;;;;;;;4537618;28;20578;-61
2022/01/08 00:04:48;;;;;;;3.35;1.50;;;;;;;;;;4536091;28;20041;-59
2022/01/08 00:06:58;;;;;;;3.83;1.93;;;;;;;;;;4537698;28;21100;-60
2022/01/08 00:09:09;;;;;;;3.13;1.57;;;;;;;;;;4537379;28;20036;-59
2022/01/08 00:11:21;;;;;;;2.17;1.30;;;;;;;;;;4537027;28;25797;-59
2022/01/08 00:13:31;;;;;;;2.55;1.35;;;;;;;;;;4537109;28;20037;-61
2022/01/08 00:15:42;;;;;;;2.10;1.40;;;;;;;;;;4537567;28;20045;-60
2022/01/08 00:17:52;;;;;;;1.77;1.10;;;;;;;;;;4537361;28;20067;-61
2022/01/08 00:20:04;;;;;;;2.40;1.30;;;;;;;;;;4536882;28;27705;-61
2022/01/08 00:22:14;;;;;;;1.85;1.30;;;;;;;;;;4536739;28;20072;-60
2022/01/08 00:24:25;;;;;;;1.77;1.30;;;;;;;;;;4534658;28;22135;-60
2022/01/08 00:26:35;;;;;;;2.80;1.60;;;;;;;;;;4535862;28;20717;-61
2022/01/08 00:28:45;;;;;;;2.30;1.40;;;;;;;;;;4537155;28;20722;-60
2022/01/08 00:30:56;;;;;;;1.57;1.30;;;;;;;;;;4537653;28;20039;-60
2022/01/08 00:33:06;;;;;;;2.60;1.57;;;;;;;;;;4535865;28;20033;-61
2022/01/08 00:35:17;;;;;;;2.00;1.20;;;;;;;;;;4536919;28;20033;-60
2022/01/08 00:37:28;;;;;;;1.20;1.00;;;;;;;;;;4537158;28;20510;-61
2022/01/08 00:39:39;;;;;;;1.63;1.20;;;;;;;;;;4537547;28;20043;-61
2022/01/08 00:41:49;;;;;;;1.98;1.17;;;;;;;;;;4535508;28;20043;-61
2022/01/08 00:44:00;;;;;;;2.77;1.50;;;;;;;;;;4536845;28;20039;-60
2022/01/08 00:46:10;;;;;;;2.50;1.33;;;;;;;;;;4537003;28;20060;-61
2022/01/08 00:48:21;;;;;;;1.67;1.37;;;;;;;;;;4537240;28;20128;-60
2022/01/08 00:50:31;;;;;;;2.13;1.47;;;;;;;;;;4535867;28;20033;-60
2022/01/08 00:52:42;;;;;;;2.70;1.53;;;;;;;;;;4536962;28;20040;-60
2022/01/08 00:54:52;;;;;;;2.87;1.83;;;;;;;;;;4537148;28;20041;-60
2022/01/08 00:57:03;;;;;;;2.20;1.60;;;;;;;;;;4538229;28;20506;-61
2022/01/08 00:59:14;;;;;;;3.22;2.13;;;;;;;;;;4517733;28;20037;-61
2022/01/08 01:01:24;;;;;;;1.50;1.40;;;;;;;;;;4539143;28;20079;-60
2022/01/08 01:03:35;;;;;;;3.07;1.90;;;;;;;;;;4518253;28;20392;-61
2022/01/08 01:05:45;;;;;;;1.90;1.40;;;;;;;;;;4540111;28;20040;-61
2022/01/08 01:07:56;;;;;;;1.93;1.20;;;;;;;;;;4540709;28;20479;-61
2022/01/08 01:10:08;;;;;;;2.87;1.40;;;;;;;;;;4521929;28;20037;-61
2022/01/08 01:12:18;;;;;;;2.47;1.20;;;;;;;;;;4540313;28;20045;-61
2022/01/08 01:14:28;;;;;;;2.40;1.10;;;;;;;;;;4540298;28;20040;-60
2022/01/08 01:16:40;;;;;;;2.00;1.50;;;;;;;;;;4540518;28;20049;-61
2022/01/08 01:18:51;;;;;;;1.48;1.00;;;;;;;;;;4538958;28;20048;-60
2022/01/08 01:21:02;;;;;;;3.22;1.63;;;;;;;;;;4540516;28;20029;-61
2022/01/08 01:23:18;;;;;;;1.98;1.33;;;;;;;;;;4515703;28;20030;-61
2022/01/08 01:25:35;;;;;;;1.50;1.10;;;;;;;;;;4540303;28;20432;-60
2022/01/08 01:41:08;;;;;;;1.80;1.30;;;;;;;;;;4539951;28;20037;-61
2022/01/08 01:43:04;;;;;;;3.28;1.20;;;;;;;;;;4539340;28;20628;-61
2022/01/08 01:47:35;;;;;;;2.42;1.33;;;;;;;;;;4540108;28;20029;-60
2022/01/08 01:49:47;;;;;;;2.20;1.38;;;;;;;;;;4540273;28;20107;-60
2022/01/08 01:51:59;;;;;;;2.22;1.23;;;;;;;;;;4539581;28;20652;-60
2022/01/08 01:54:09;;;;;;;2.70;1.45;;;;;;;;;;4521651;28;20034;-60
2022/01/08 01:56:20;;;;;;;3.53;1.50;;;;;;;;;;4539671;28;20445;-60
2022/01/08 01:58:30;;;;;;;2.60;1.38;;;;;;;;;;4539694;28;20115;-61
2022/01/08 02:00:43;;;;;;;2.67;1.40;;;;;;;;;;4539811;28;20033;-60
2022/01/08 02:02:53;;;;;;;2.75;1.40;;;;;;;;;;4538124;28;20048;-61
2022/01/08 02:05:04;;;;;;;2.90;1.60;;;;;;;;;;4538053;28;33440;-61
2022/01/08 02:07:14;;;;;;;2.13;1.43;;;;;;;;;;4504556;28;20037;-60
2022/01/08 02:09:25;;;;;;;2.67;1.20;;;;;;;;;;4538245;28;20029;-60
2022/01/08 02:12:17;;;;;;;2.60;1.67;;;;;;;;;;4539874;28;20596;-60
2022/01/08 02:14:28;;;;;;;;;;;;;;;;;;4501368;28;20124;-61
2022/01/08 02:16:38;;;;;;;2.10;1.38;;;;;;;;;;4501033;28;19972;-61
2022/01/08 02:18:50;;;;;;;2.50;1.50;;;;;;;;;;4500411;28;20582;-60
2022/01/08 02:21:00;;;;;;;;;;;;;;;;;;4501348;28;21089;-61
2022/01/08 02:23:11;;;;;;;3.85;1.80;;;;;;;;;;4500855;28;20112;-60
2022/01/08 02:25:22;;;;;;;2.97;1.37;;;;;;;;;;4476929;28;20061;-61
2022/01/08 02:27:33;;;;;;;2.25;1.38;;;;;;;;;;4500922;28;20100;-60
2022/01/08 02:29:44;;;;;;;4.00;1.80;;;;;;;;;;4500822;28;20494;-60
2022/01/08 02:32:09;;;;;;;3.72;1.67;;;;;;;;;;4484482;28;20050;-60
2022/01/08 02:34:20;;;;;;;3.67;1.77;;;;;;;;;;4500592;28;20042;-60
2022/01/08 02:36:30;;;;;;;2.85;1.50;;;;;;;;;;4484094;28;20038;-60
2022/01/08 02:38:41;;;;;;;3.10;1.60;;;;;;;;;;4500713;28;20057;-60
2022/01/08 02:40:56;;;;;;;3.23;1.77;;;;;;;;;;4501104;28;20037;-60
2022/01/08 02:43:06;;;;;;;2.53;1.48;;;;;;;;;;4478862;28;20034;-60
2022/01/08 02:45:17;;;;;;;3.17;1.70;;;;;;;;;;4519399;28;20057;-60
2022/01/08 02:47:28;;;;;;;3.08;1.77;;;;;;;;;;4520884;28;20037;-60
2022/01/08 02:49:38;;;;;;;3.00;1.87;;;;;;;;;;4539114;28;20041;-60
2022/01/08 02:51:49;;;;;;;3.53;1.87;;;;;;;;;;4538324;28;27660;-60
2022/01/08 02:53:59;;;;;;;5.13;2.40;;;;;;;;;;4539406;28;20405;-60
2022/01/08 02:56:10;;;;;;;3.97;2.10;;;;;;;;;;4539410;28;20037;-60
2022/01/08 02:58:21;;;;;;;4.43;2.50;;;;;;;;;;4509844;28;20124;-60
2022/01/08 03:00:32;;;;;;;4.00;2.03;;;;;;;;;;4538661;28;20329;-60
2022/01/08 03:02:47;;;;;;;3.87;1.83;;;;;;;;;;4507006;28;20044;-60
2022/01/08 03:04:57;;;;;;;6.60;2.92;;;;;;;;;;4538383;28;20041;-60
2022/01/08 03:07:08;;;;;;;4.27;2.37;;;;;;;;;;4538937;28;20478;-60
2022/01/08 03:09:18;;;;;;;4.13;1.90;;;;;;;;;;4538563;28;20056;-60
2022/01/08 03:11:29;;;;;;;3.87;2.03;;;;;;;;;;4537044;28;20076;-60
2022/01/08 03:13:39;;;;;;;3.17;2.37;;;;;;;;;;4539094;28;20025;-60
2022/01/08 03:15:50;;;;;;;3.20;1.80;;;;;;;;;;4538072;28;27756;-60
2022/01/08 03:18:00;;;;;;;2.67;1.70;;;;;;;;;;4538814;28;20130;-60
2022/01/08 03:20:13;;;;;;;3.33;1.70;;;;;;;;;;4538353;28;20037;-60
2022/01/08 03:22:24;;;;;;;3.33;2.00;;;;;;;;;;4538494;28;20674;-60
2022/01/08 03:24:35;;;;;;;3.57;1.80;;;;;;;;;;4538219;28;20090;-60
2022/01/08 03:26:45;;;;;;;3.77;1.93;;;;;;;;;;4539043;28;20086;-60
2022/01/08 03:28:56;;;;;;;4.97;2.27;;;;;;;;;;4538504;28;21060;-60
2022/01/08 03:31:07;;;;;;;4.30;2.20;;;;;;;;;;4538290;28;20494;-60
2022/01/08 03:33:17;;;;;;;2.93;2.10;;;;;;;;;;4538284;28;21082;-60
2022/01/08 03:35:27;;;;;;;3.63;2.20;;;;;;;;;;4537954;28;30720;-60
2022/01/08 03:37:38;;;;;;;4.33;2.13;;;;;;;;;;4538508;28;20045;-60
2022/01/08 03:39:48;;;;;;;5.23;2.63;;;;;;;;;;4536916;28;20460;-60
2022/01/08 03:41:59;;;;;;;5.50;2.70;;;;;;;;;;4519225;28;28982;-60
2022/01/08 03:44:09;;;;;;;4.60;2.40;;;;;;;;;;4516412;28;35885;-60
2022/01/08 03:46:21;;;;;;;3.00;1.83;;;;;;;;;;4537943;28;20044;-60
2022/01/08 03:48:44;;;;;;;3.38;1.92;;;;;;;;;;4538590;28;20065;-60
2022/01/08 03:50:55;;;;;;;3.22;1.83;;;;;;;;;;4536700;28;20143;-60
2022/01/08 03:53:05;;;;;;;4.53;2.20;;;;;;;;;;4503368;28;20100;-60
2022/01/08 03:55:16;;;;;;;3.80;2.20;;;;;;;;;;4538212;28;20033;-60
2022/01/08 03:57:26;;;;;;;2.90;1.93;;;;;;;;;;4536732;28;20045;-60
2022/01/08 03:59:37;;;;;;;4.07;2.40;;;;;;;;;;4536894;28;34041;-60
2022/01/08 04:01:47;;;;;;;4.40;2.50;;;;;;;;;;4538246;28;20037;-60
2022/01/08 04:03:57;;;;;;;4.03;2.47;;;;;;;;;;4519433;28;20422;-60
2022/01/08 04:06:08;;;;;;;5.10;2.80;;;;;;;;;;4537766;28;28789;-60
2022/01/08 04:08:19;;;;;;;4.65;2.53;;;;;;;;;;4537984;28;20051;-60
2022/01/08 04:10:29;;;;;;;5.53;2.80;;;;;;;;;;4537797;28;20039;-60
2022/01/08 04:12:44;;;;;;;4.20;2.30;;;;;;;;;;4536570;28;20075;-60
2022/01/08 04:15:05;;;;;;;5.10;2.60;;;;;;;;;;4537597;28;20032;-60
2022/01/08 04:17:16;;;;;;;4.65;2.50;;;;;;;;;;4537337;28;20061;-60
2022/01/08 04:19:26;;;;;;;;;;;;;;;;;;4538426;28;20651;-60
2022/01/08 04:23:47;;;;;;;6.27;3.17;;;;;;;;;;4519047;28;20030;-60
2022/01/08 04:25:58;;;;;;;5.23;3.40;;;;;;;;;;4512811;28;20049;-60
2022/01/08 04:28:08;;;;;;;8.50;4.63;;;;;;;;;;4537798;28;20743;-60
2022/01/08 04:30:19;;;;;;;8.27;5.10;;;;;;;;;;4538186;28;20112;-60
2022/01/08 04:32:30;;;;;;;6.03;4.10;;;;;;;;;;4535405;28;20924;-60
2022/01/08 04:34:40;;;;;;;5.43;3.97;;;;;;;;;;4537547;28;20040;-60
2022/01/08 04:36:51;;;;;;;6.00;3.73;;;;;;;;;;4538018;28;20433;-60
2022/01/08 04:39:01;;;;;;;5.43;4.10;;;;;;;;;;4536626;28;35283;-60
2022/01/08 04:41:12;;;;;;;5.60;3.57;;;;;;;;;;4512848;28;20034;-60
2022/01/08 04:43:23;;;;;;;5.90;3.30;;;;;;;;;;4537248;28;20260;-60
2022/01/08 04:45:33;;;;;;;5.20;2.93;;;;;;;;;;4537593;28;20049;-60
2022/01/08 04:47:44;;;;;;;3.67;2.90;;;;;;;;;;4536961;28;23868;-60
2022/01/08 04:49:54;;;;;;;4.83;3.07;;;;;;;;;;4537413;28;20108;-60
2022/01/08 04:52:05;;;;;;;5.67;3.60;;;;;;;;;;4535987;28;20083;-60
2022/01/08 04:54:16;;;;;;;5.00;3.20;;;;;;;;;;4537223;28;20328;-60
2022/01/08 04:56:26;;;;;;;4.87;3.13;;;;;;;;;;4537132;28;20285;-60
2022/01/08 04:58:37;;;;;;;4.07;2.70;;;;;;;;;;4537126;28;20037;-60
2022/01/08 05:00:47;;;;;;;5.30;2.93;;;;;;;;;;4537084;28;29312;-60
2022/01/08 05:02:58;;;;;;;5.87;3.10;;;;;;;;;;4536954;28;27469;-60
2022/01/08 05:05:10;;;;;;;6.28;3.60;;;;;;;;;;4536735;28;20041;-60
2022/01/08 05:07:20;;;;;;;5.70;3.30;;;;;;;;;;4536880;28;20048;-59
2022/01/08 05:09:30;;;;;;;5.50;3.13;;;;;;;;;;4536845;28;20044;-59
2022/01/08 05:11:41;;;;;;;5.13;3.30;;;;;;;;;;4536019;28;20096;-60
2022/01/08 05:13:52;;;;;;;5.40;3.23;;;;;;;;;;4536708;28;20021;-60
2022/01/08 05:16:03;;;;;;;5.05;3.28;;;;;;;;;;4536400;28;20640;-60
2022/01/08 05:18:13;;;;;;;4.50;3.10;;;;;;;;;;4537355;28;20554;-60
2022/01/08 05:20:27;;;;;;;5.33;3.07;;;;;;;;;;4537018;28;20855;-60
2022/01/08 05:24:57;;;;;;;4.78;3.20;;;;;;;;;;4537588;28;20052;-60
2022/01/08 05:27:12;;;;;;;4.97;3.20;;;;;;;;;;4537295;28;20725;-60
2022/01/08 05:29:22;;;;;;;6.05;3.70;;;;;;;;;;4536632;28;20021;-60
2022/01/08 05:31:33;;;;;;;5.90;3.33;;;;;;;;;;4534709;28;34391;-59
2022/01/08 05:33:44;;;;;;;5.97;3.33;;;;;;;;;;4536685;28;20033;-60
2022/01/08 05:35:54;;;;;;;5.63;3.63;;;;;;;;;;4536934;28;20029;-60
2022/01/08 05:38:05;;;;;;;7.83;4.87;;;;;;;;;;4537284;28;20037;-60
2022/01/08 05:40:15;;;;;;;8.43;5.10;;;;;;;;;;4537022;28;20037;-60
2022/01/08 05:42:26;;;;;;;8.90;5.17;;;;;;;;;;4537031;28;20029;-60
2022/01/08 05:44:36;;;;;;;5.87;4.00;;;;;;;;;;4538116;28;27936;-60
2022/01/08 05:46:47;;;;;;;5.97;3.73;;;;;;;;;;4539669;28;28512;-60
2022/01/08 05:49:01;;;;;;;5.88;3.70;;;;;;;;;;4540001;28;20037;-60
2022/01/08 05:51:12;;;;;;;6.55;4.30;;;;;;;;;;4539909;28;20033;-60
2022/01/08 05:53:22;;;;;;;6.43;4.00;;;;;;;;;;4539567;28;20037;-59
2022/01/08 05:55:33;;;;;;;6.90;4.00;;;;;;;;;;4538905;28;20088;-60
2022/01/08 05:57:43;;;;;;;5.20;3.50;;;;;;;;;;4521259;28;23858;-60
2022/01/08 05:59:54;;;;;;;5.77;3.73;;;;;;;;;;4538690;28;20041;-60
2022/01/08 06:02:05;;;;;;;6.83;4.07;;;;;;;;;;4539241;28;21574;-60
2022/01/08 06:04:16;;;;;;;6.13;3.72;;;;;;;;;;4538121;28;20637;-60
2022/01/08 06:06:26;;;;;;;6.83;3.93;;;;;;;;;;4539700;28;20049;-60
2022/01/08 06:08:37;;;;;;;7.63;4.37;;;;;;;;;;4539524;28;20028;-60
2022/01/08 06:10:47;;;;;;;5.73;3.80;;;;;;;;;;4539866;28;20044;-60
2022/01/08 06:12:58;;;;;;;5.03;3.83;;;;;;;;;;4539257;28;20043;-60
2022/01/08 06:15:08;;;;;;;5.67;3.90;;;;;;;;;;4537833;28;20067;-60
2022/01/08 06:17:19;;;;;;;5.90;3.95;;;;;;;;;;4539738;28;20064;-60
2022/01/08 06:19:29;;;;;;;5.83;3.97;;;;;;;;;;4539588;28;20079;-60
2022/01/08 06:21:40;;;;;;;5.60;3.90;;;;;;;;;;4539603;28;20069;-60
2022/01/08 06:23:50;;;;;;;6.37;3.93;;;;;;;;;;4537709;28;21289;-60
2022/01/08 06:26:01;;;;;;;5.77;3.67;;;;;;;;;;4538566;28;32122;-60
2022/01/08 06:28:11;;;;;;;6.47;4.23;;;;;;;;;;4538479;28;20037;-60
2022/01/08 06:30:22;;;;;;;5.80;4.07;;;;;;;;;;4539400;28;20052;-60
2022/01/08 06:32:32;;;;;;;6.97;4.27;;;;;;;;;;4539706;28;20037;-60
2022/01/08 06:34:43;;;;;;;6.13;4.00;;;;;;;;;;4513677;28;20083;-59
2022/01/08 06:36:54;;;;;;;5.97;3.67;;;;;;;;;;4520853;28;20188;-60
2022/01/08 06:39:04;;;;;;;4.80;3.57;;;;;;;;;;4537813;28;20140;-60
2022/01/08 06:41:16;;;;;;;6.90;4.00;;;;;;;;;;4514497;28;20084;-60
2022/01/08 06:43:26;;;;;;;5.75;3.70;;;;;;;;;;4537349;28;20326;-60
2022/01/08 06:45:36;;;;;;;5.70;3.33;;;;;;;;;;4538166;28;32396;-60
2022/01/08 06:47:47;;;;;;;6.37;3.80;;;;;;;;;;4539173;28;20032;-60
2022/01/08 06:49:57;;;;;;;5.30;4.07;;;;;;;;;;4537295;28;32624;-60
2022/01/08 06:52:08;;;;;;;6.00;3.90;;;;;;;;;;4539781;28;20605;-59
2022/01/08 06:54:18;;;;;;;5.57;3.60;;;;;;;;;;4538300;28;20278;-59
2022/01/08 06:56:28;;;;;;;7.10;4.00;;;;;;;;;;4538965;28;20040;-60
2022/01/08 06:58:41;;;;;;;7.23;4.17;;;;;;;;;;4537123;28;31647;-60
2022/01/08 07:00:52;;;;;;;7.15;4.45;;;;;;;;;;4538384;28;20114;-60
2022/01/08 07:03:03;;;;;;;7.30;4.10;;;;;;;;;;4538526;28;20056;-60
2022/01/08 07:05:13;;;;;;;9.07;6.40;;;;;;;;;;4538353;28;20047;-60
2022/01/08 07:07:24;;;;;;;9.63;7.27;;;;;;;;;;4538510;28;20859;-60
2022/01/08 07:09:34;;;;;;;8.27;6.10;;;;;;;;;;4538714;28;20029;-60
2022/01/08 07:11:44;;;;;;;6.80;4.87;;;;;;;;;;4537460;28;25235;-60
2022/01/08 07:13:55;;;;;;;8.80;5.30;;;;;;;;;;4538099;28;24290;-60
2022/01/08 07:16:06;;;;;;;7.83;5.20;;;;;;;;;;4538281;28;20037;-60
2022/01/08 07:18:16;;;;;;;8.10;4.93;;;;;;;;;;4538610;28;20048;-59
2022/01/08 07:20:27;;;;;;;8.57;5.30;;;;;;;;;;4538058;28;20037;-59
2022/01/08 07:22:37;;;;;;;8.90;5.83;;;;;;;;;;4519888;28;20025;-60
2022/01/08 07:24:48;;;;;;;6.87;4.60;;;;;;;;;;4519486;28;20045;-59
2022/01/08 07:26:58;;;;;;;7.50;4.57;;;;;;;;;;4537944;28;20041;-60
2022/01/08 07:29:09;;;;;;;5.70;4.00;;;;;;;;;;4538317;28;20083;-60
2022/01/08 07:31:19;;;;;;;5.97;3.90;;;;;;;;;;4538354;28;20175;-59
2022/01/08 07:33:30;;;;;;;6.23;3.83;;;;;;;;;;4538312;28;20048;-60
2022/01/08 07:35:40;;;;;;;5.40;3.80;;;;;;;;;;4535981;28;25966;-60
2022/01/08 07:37:52;;;;;;;5.80;4.20;;;;;;;;;;4538606;28;20033;-60
2022/01/08 07:40:03;;;;;;;;;;;;;;;;;;4538161;28;20505;-60
2022/01/08 07:42:13;;;;;;;6.43;4.05;;;;;;;;;;4538126;28;19921;-60
2022/01/08 07:44:24;;;;;;;5.97;4.10;;;;;;;;;;4536094;28;20809;-60
2022/01/08 07:46:34;;;;;;;6.07;4.13;;;;;;;;;;4537281;28;20045;-60
2022/01/08 07:48:44;;;;;;;7.07;4.43;;;;;;;;;;4519432;28;20042;-60
2022/01/08 07:50:55;;;;;;;6.40;4.77;;;;;;;;;;4537470;28;20851;-60
2022/01/08 07:53:05;;;;;;;8.10;4.80;;;;;;;;;;4537584;28;20414;-59
2022/01/08 07:55:16;;;;;;;8.43;4.97;;;;;;;;;;4537609;28;20963;-60
2022/01/08 07:57:26;;;;;;;6.63;4.50;;;;;;;;;;4535760;28;20036;-59
2022/01/08 07:59:37;;;;;;;7.37;4.60;;;;;;;;;;4537840;28;20045;-59
2022/01/08 08:01:47;;;;;;;7.50;4.67;;;;;;;;;;4536991;28;20134;-59
2022/01/08 08:03:58;;;;;;;5.93;4.10;;;;;;;;;;4537072;28;20029;-59
2022/01/08 08:06:11;;;;;;;7.20;4.50;;;;;;;;;;4536074;28;20541;-60
2022/01/08 08:08:22;;;;;;;9.45;6.18;;;;;;;;;;4535805;28;20640;-60
2022/01/08 08:10:32;;;;;;;10.37;7.23;;;;;;;;;;4537595;28;20029;-59
2022/01/08 08:12:43;;;;;;;8.50;6.10;;;;;;;;;;4536740;28;20040;-59
2022/01/08 08:14:53;;;;;;;8.00;5.47;;;;;;;;;;4519763;28;20044;-60
2022/01/08 08:17:03;;;;;;;8.63;5.80;;;;;;;;;;4536678;28;20037;-59
2022/01/08 08:19:14;;;;;;;8.07;5.17;;;;;;;;;;4536960;28;20036;-59
2022/01/08 08:21:24;;;;;;;8.63;4.87;;;;;;;;;;4512013;28;20030;-60
2022/01/08 08:23:35;;;;;;;8.87;5.50;;;;;;;;;;4536551;28;20609;-60
2022/01/08 08:25:45;;;;;;;8.23;5.70;;;;;;;;;;4535698;28;32001;-60
2022/01/08 08:27:56;;;;;;;8.33;5.47;;;;;;;;;;4519042;28;20025;-59
2022/01/08 08:30:07;;;;;;;7.43;5.27;;;;;;;;;;4536629;28;20075;-60
2022/01/08 08:32:18;;;;;;;9.05;5.15;;;;;;;;;;4518335;28;20034;-59
2022/01/08 08:34:28;;;;;;;8.23;5.73;;;;;;;;;;4536627;28;20053;-59
2022/01/08 08:36:39;;;;;;;8.90;6.07;;;;;;;;;;4535886;28;28724;-60
2022/01/08 08:38:50;;;;;;;8.55;5.45;;;;;;;;;;4535302;28;20053;-60
2022/01/08 08:41:01;;;;;;;7.97;5.30;;;;;;;;;;4536685;28;20041;-60
2022/01/08 08:43:11;;;;;;;7.47;5.13;;;;;;;;;;4536915;28;20040;-59
2022/01/08 08:45:22;;;;;;;7.77;5.23;;;;;;;;;;4518878;28;20053;-60
2022/01/08 08:47:33;;;;;;;8.38;4.80;;;;;;;;;;4537017;28;20155;-59
2022/01/08 08:49:43;;;;;;;7.47;4.50;;;;;;;;;;4537172;28;20466;-60
2022/01/08 08:51:54;;;;;;;8.23;5.27;;;;;;;;;;4536805;28;20033;-60
2022/01/08 08:54:04;;;;;;;7.77;5.30;;;;;;;;;;4537002;28;20029;-59
2022/01/08 08:56:15;;;;;;;8.10;5.23;;;;;;;;;;4535375;28;20041;-59
2022/01/08 08:58:25;;;;;;;8.17;4.87;;;;;;;;;;4523742;28;21166;-59
2022/01/08 09:00:35;;;;;;;8.23;4.90;;;;;;;;;;4536246;28;20029;-59
2022/01/08 09:02:46;;;;;;;8.00;5.00;;;;;;;;;;4535564;28;20037;-59
2022/01/08 09:04:56;;;;;;;7.07;4.30;;;;;;;;;;4535467;28;20059;-60
2022/01/08 09:07:07;;;;;;;6.43;4.30;;;;;;;;;;4535911;28;28830;-59
2022/01/08 09:09:18;;;;;;;6.57;4.53;;;;;;;;;;4535673;28;20038;-60
2022/01/08 09:11:28;;;;;;;7.57;4.80;;;;;;;;;;4536324;28;20491;-60
2022/01/08 09:13:39;;;;;;;7.10;4.40;;;;;;;;;;4518418;28;20088;-59
2022/01/08 09:15:49;;;;;;;7.60;4.63;;;;;;;;;;4536313;28;20033;-60
2022/01/08 09:18:00;;;;;;;6.40;4.13;;;;;;;;;;4519032;28;20529;-60
2022/01/08 09:20:10;;;;;;;7.97;4.70;;;;;;;;;;4540003;28;23286;-60
2022/01/08 09:22:21;;;;;;;6.80;4.37;;;;;;;;;;4540094;28;20032;-60
2022/01/08 09:24:32;;;;;;;8.13;5.00;;;;;;;;;;4538004;28;20064;-60
2022/01/08 09:26:42;;;;;;;;;;;;;;;;;;4514541;28;20414;-60
2022/01/08 09:28:53;;;;;;;11.30;7.88;;;;;;;;;;4539415;28;21373;-60
2022/01/08 09:31:03;;;;;;;14.47;11.27;;;;;;;;;;4520417;28;20045;-60
2022/01/08 09:33:15;;;;;;;12.03;7.67;;;;;;;;;;4539363;28;20053;-60
2022/01/08 09:35:26;;;;;;;8.73;5.88;;;;;;;;;;4539435;28;20041;-61
2022/01/08 09:37:39;;;;;;;6.70;4.53;;;;;;;;;;4539891;28;21287;-60
2022/01/08 09:39:49;;;;;;;7.22;4.20;;;;;;;;;;4539461;28;20033;-60
2022/01/08 09:42:02;;;;;;;8.57;4.30;;;;;;;;;;4538945;28;20036;-60
2022/01/08 09:44:13;;;;;;;5.53;3.65;;;;;;;;;;4521516;28;20033;-61
2022/01/08 09:46:23;;;;;;;4.77;2.93;;;;;;;;;;4538685;28;20056;-60
2022/01/08 09:48:34;;;;;;;6.30;3.70;;;;;;;;;;4537741;28;20032;-60
2022/01/08 09:50:44;;;;;;;6.93;3.57;;;;;;;;;;4539657;28;20467;-60
2022/01/08 09:52:57;;;;;;;6.80;3.50;;;;;;;;;;4538621;28;20514;-60
2022/01/08 09:55:08;;;;;;;5.53;3.13;;;;;;;;;;4539582;28;20037;-60
2022/01/08 09:57:19;;;;;;;5.53;3.95;;;;;;;;;;4539812;28;20071;-60
2022/01/08 09:59:29;;;;;;;5.23;3.50;;;;;;;;;;4521241;28;20145;-60
2022/01/08 10:01:40;;;;;;;5.23;3.40;;;;;;;;;;4540194;28;20041;-60
2022/01/08 10:03:50;;;;;;;5.97;3.30;;;;;;;;;;4537656;28;20030;-60
2022/01/08 10:06:01;;;;;;;6.37;3.40;;;;;;;;;;4537981;28;20040;-61
2022/01/08 10:08:12;;;;;;;5.93;3.17;;;;;;;;;;4539316;28;20041;-60
2022/01/08 10:10:24;;;;;;;8.02;3.83;;;;;;;;;;4539021;28;20036;-60
2022/01/08 10:12:45;;;;;;;7.32;4.70;;;;;;;;;;4539228;28;20148;-60
2022/01/08 10:17:44;;;;;;;5.80;3.33;;;;;;;;;;4538599;28;20048;-60
2022/01/08 10:19:54;;;;;;;6.25;3.60;;;;;;;;;;4539202;28;20550;-60
2022/01/08 10:22:14;;;;;;;5.57;2.77;;;;;;;;;;4537962;28;20391;-60
2022/01/08 10:24:27;;;;;;;4.68;3.03;;;;;;;;;;4537908;28;20036;-60
2022/01/08 10:26:39;;;;;;;5.68;3.13;;;;;;;;;;4538997;28;20635;-60
2022/01/08 10:28:54;;;;;;;6.05;3.17;;;;;;;;;;4537487;28;20033;-60
2022/01/08 10:31:14;;;;;;;5.38;3.10;;;;;;;;;;4522483;28;20033;-60
2022/01/08 10:33:24;;;;;;;6.22;3.25;;;;;;;;;;4538986;28;20032;-60
2022/01/08 10:35:46;;;;;;;4.53;2.53;;;;;;;;;;4537709;28;20040;-60
2022/01/08 10:37:56;;;;;;;4.80;2.90;;;;;;;;;;4538778;28;20504;-60
2022/01/08 10:40:07;;;;;;;5.43;3.00;;;;;;;;;;4538993;28;20037;-60
2022/01/08 10:42:17;;;;;;;5.57;3.00;;;;;;;;;;4538938;28;20025;-60
2022/01/08 10:44:30;;;;;;;5.73;3.40;;;;;;;;;;4520809;28;20041;-61
2022/01/08 10:46:45;;;;;;;4.95;3.03;;;;;;;;;;4538558;28;20638;-61
2022/01/08 10:48:55;;;;;;;5.13;2.78;;;;;;;;;;4536086;28;20025;-61
2022/01/08 10:51:15;;;;;;;4.73;2.87;;;;;;;;;;4538357;28;20561;-61
2022/01/08 10:53:52;;;;;;;3.92;2.47;;;;;;;;;;4538034;28;20069;-60
2022/01/08 10:56:23;;;;;;;6.10;3.00;;;;;;;;;;4538338;28;20029;-61
2022/01/08 10:58:41;;;;;;;6.82;3.30;;;;;;;;;;4536660;28;20103;-61
2022/01/08 11:00:51;;;;;;;7.00;3.30;;;;;;;;;;4537620;28;20037;-61
2022/01/08 11:03:02;;;;;;;5.27;2.97;;;;;;;;;;4517423;28;23895;-61
2022/01/08 11:05:13;;;;;;;5.03;2.93;;;;;;;;;;4518678;28;20049;-61
2022/01/08 11:07:23;;;;;;;4.93;3.00;;;;;;;;;;4537068;28;20037;-61
2022/01/08 11:09:36;;;;;;;4.50;2.53;;;;;;;;;;4538835;28;20029;-60
2022/01/08 11:11:47;;;;;;;4.30;2.78;;;;;;;;;;4519964;28;20041;-61
2022/01/08 11:14:04;;;;;;;3.80;2.50;;;;;;;;;;4538491;28;20037;-60
2022/01/08 11:16:15;;;;;;;4.78;2.40;;;;;;;;;;4536401;28;20957;-61
2022/01/08 11:18:27;;;;;;;3.43;2.00;;;;;;;;;;4536847;28;28265;-61
2022/01/08 11:20:37;;;;;;;5.35;2.10;;;;;;;;;;4538440;28;20036;-61
2022/01/08 11:22:50;;;;;;;3.97;2.40;;;;;;;;;;4538592;28;20028;-61
2022/01/08 11:25:00;;;;;;;3.92;2.53;;;;;;;;;;4536728;28;20048;-60
2022/01/08 11:27:11;;;;;;;6.10;2.43;;;;;;;;;;4537277;28;20036;-61
2022/01/08 11:29:25;;;;;;;3.80;2.10;;;;;;;;;;4537053;28;20033;-60
2022/01/08 11:31:35;;;;;;;3.25;2.00;;;;;;;;;;4537606;28;21396;-60
2022/01/08 11:33:49;;;;;;;4.50;2.37;;;;;;;;;;4537078;28;22481;-60
2022/01/08 11:36:00;;;;;;;2.95;1.65;;;;;;;;;;4537348;28;20041;-61
2022/01/08 11:38:13;;;;;;;4.37;2.20;;;;;;;;;;4537802;28;23627;-60
2022/01/08 11:40:26;;;;;;;4.22;2.38;;;;;;;;;;4538520;28;20663;-60
2022/01/08 11:42:38;;;;;;;3.92;2.13;;;;;;;;;;4536789;28;20090;-60
2022/01/08 11:44:51;;;;;;;4.65;2.22;;;;;;;;;;4518902;28;20033;-60
2022/01/08 11:47:01;;;;;;;3.28;1.92;;;;;;;;;;4537459;28;20040;-60
2022/01/08 11:49:12;;;;;;;4.90;2.30;;;;;;;;;;4536222;28;20592;-60
2022/01/08 11:51:24;;;;;;;3.60;2.27;;;;;;;;;;4536720;28;20033;-60
2022/01/08 11:53:45;;;;;;;4.72;2.30;;;;;;;;;;4519185;28;20096;-60
2022/01/08 11:56:06;;;;;;;5.05;2.75;;;;;;;;;;4537655;28;20036;-60
2022/01/08 11:58:33;;;;;;;4.95;3.00;;;;;;;;;;4536649;28;20036;-60
2022/01/08 12:01:09;;;;;;;4.78;2.70;;;;;;;;;;4537942;28;20521;-60
2022/01/08 12:03:21;;;;;;;4.47;2.50;;;;;;;;;;4535613;28;20041;-61
2022/01/08 12:05:32;;;;;;;3.88;2.40;;;;;;;;;;4537316;28;20040;-59
2022/01/08 12:07:46;;;;;;;4.63;2.80;;;;;;;;;;4536980;28;20048;-59
2022/01/08 12:10:11;;;;;;;3.97;2.60;;;;;;;;;;4536532;28;20158;-59
2022/01/08 12:12:21;;;;;;;5.03;2.95;;;;;;;;;;4537704;28;20033;-59
2022/01/08 12:14:34;;;;;;;4.53;2.63;;;;;;;;;;4536997;28;20403;-59
2022/01/08 12:16:47;;;;;;;3.72;2.40;;;;;;;;;;4536820;28;20029;-60
2022/01/08 12:18:58;;;;;;;4.00;2.33;;;;;;;;;;4538287;28;20041;-59
2022/01/08 12:21:32;;;;;;;4.65;2.30;;;;;;;;;;4513886;28;20037;-59
2022/01/08 12:23:44;;;;;;;4.95;2.67;;;;;;;;;;4536513;28;20029;-59
2022/01/08 12:25:54;;;;;;;3.08;2.20;;;;;;;;;;4535860;28;20080;-59
2022/01/08 12:28:05;;;;;;;2.57;2.07;;;;;;;;;;4537277;28;20104;-59
2022/01/08 12:30:15;;;;;;;3.90;2.20;;;;;;;;;;4537457;28;20033;-59
2022/01/08 12:32:35;;;;;;;3.33;2.20;;;;;;;;;;4537005;28;20451;-59
2022/01/08 12:34:49;;;;;;;4.03;2.50;;;;;;;;;;4537165;28;20541;-59
2022/01/08 12:37:01;;;;;;;3.55;2.10;;;;;;;;;;4536676;28;20123;-59
2022/01/08 12:39:12;;;;;;;3.13;2.08;;;;;;;;;;4535803;28;20017;-59
2022/01/08 12:41:22;;;;;;;4.40;2.57;;;;;;;;;;4536764;28;20363;-59
2022/01/08 12:43:37;;;;;;;3.43;2.30;;;;;;;;;;4537339;28;20040;-59
2022/01/08 12:45:52;;;;;;;3.33;2.10;;;;;;;;;;4536101;28;21156;-59
2022/01/08 12:48:08;;;;;;;2.78;1.83;;;;;;;;;;4536025;28;21029;-59
2022/01/08 12:50:23;;;;;;;4.43;2.00;;;;;;;;;;4519666;28;20131;-59
2022/01/08 12:52:34;;;;;;;3.30;1.92;;;;;;;;;;4537348;28;20553;-59
2022/01/08 12:54:44;;;;;;;3.00;1.77;;;;;;;;;;4540015;28;23763;-59
2022/01/08 12:56:57;;;;;;;2.90;1.87;;;;;;;;;;4505465;28;20272;-59
2022/01/08 12:59:08;;;;;;;2.95;1.70;;;;;;;;;;4540686;28;20873;-59
2022/01/08 13:01:21;;;;;;;1.75;1.27;;;;;;;;;;4540268;28;20061;-59
2022/01/08 13:03:39;;;;;;;4.07;1.70;;;;;;;;;;4521869;28;20044;-59
2022/01/08 13:05:50;;;;;;;3.13;1.55;;;;;;;;;;4521973;28;20068;-59
2022/01/08 13:08:00;;;;;;;2.33;1.30;;;;;;;;;;4540680;28;20052;-59
2022/01/08 13:10:10;;;;;;;1.63;1.17;;;;;;;;;;4540272;28;22397;-59
2022/01/08 13:12:24;;;;;;;2.30;1.30;;;;;;;;;;4540681;28;20043;-59
2022/01/08 13:14:34;;;;;;;2.40;1.17;;;;;;;;;;4539771;28;20148;-59
2022/01/08 13:16:50;;;;;;;2.40;1.20;;;;;;;;;;4540289;28;20033;-59
2022/01/08 13:19:05;;;;;;;4.10;1.40;;;;;;;;;;4540363;28;20032;-59
2022/01/08 13:21:17;;;;;;;2.75;1.25;;;;;;;;;;4515133;28;20026;-59
2022/01/08 13:23:28;;;;;;;2.28;1.17;;;;;;;;;;4540105;28;20076;-59
2022/01/08 13:25:38;;;;;;;2.90;1.30;;;;;;;;;;4538855;28;20143;-59
2022/01/08 13:27:49;;;;;;;2.37;1.23;;;;;;;;;;4540656;28;20033;-59
2022/01/08 13:30:03;;;;;;;2.73;1.10;;;;;;;;;;4540654;28;20037;-59
2022/01/08 13:32:18;;;;;;;2.72;1.23;;;;;;;;;;4540064;28;20033;-59